sensor_id;sensor_type;location;lat;lon;timestamp;pressure;altitude;pressure_sealevel;temperature;humidity
30421;BME280;17218;54.070;10.012;2023-04-15T00:00:56;100828.97;;;8.41;100.00
30421;BME280;17218;54.070;10.012;2023-04-15T00:03:22;100821.19;;;8.38;100.00
30421;BME280;17218;54.070;10.012;2023-04-15T00:05:49;100819.50;;;8.45;100.00
30421;BME280;17218;54.070;10.012;2023-04-15T00:08:16;100818.63;;;8.46;100.00
30421;BME280;17218;54.070;10.012;2023-04-15T00:10:44;100812.59;;;8.45;100.00
30421;BME280;17218;54.070;10.012;2023-04-15T00:13:10;100816.91;;;8.48;100.00
30421;BME280;17218;54.070;10.012;2023-04-15T00:15:37;100810.91;;;8.52;100.00
30421;BME280;17218;54.070;10.012;2023-04-15T00:18:03;100804.00;;;8.54;100.00
30421;BME280;17218;54.070;10.012;2023-04-15T00:20:31;100798.84;;;8.45;100.00
30421;BME280;17218;54.070;10.012;2023-04-15T00:22:58;100792.81;;;8.47;100.00
30421;BME280;17218;54.070;10.012;2023-04-15T00:25:24;100801.44;;;8.45;100.00
30421;BME280;17218;54.070;10.012;2023-04-15T00:27:52;100798.81;;;8.42;100.00
30421;BME280;17218;54.070;10.012;2023-04-15T00:30:19;100797.97;;;8.46;100.00
30421;BME280;17218;54.070;10.012;2023-04-15T00:32:46;100793.69;;;8.53;100.00
30421;BME280;17218;54.070;10.012;2023-04-15T00:35:13;100791.94;;;8.47;100.00
30421;BME280;17218;54.070;10.012;2023-04-15T00:37:39;100785.94;;;8.50;100.00
30421;BME280;17218;54.070;10.012;2023-04-15T00:40:10;100794.56;;;8.50;100.00
30421;BME280;17218;54.070;10.012;2023-04-15T00:42:38;100793.69;;;8.51;100.00
30421;BME280;17218;54.070;10.012;2023-04-15T00:45:06;100794.59;;;8.58;100.00
30421;BME280;17218;54.070;10.012;2023-04-15T00:47:34;100792.00;;;8.56;100.00
30421;BME280;17218;54.070;10.012;2023-04-15T00:50:01;100791.94;;;8.44;100.00
30421;BME280;17218;54.070;10.012;2023-04-15T00:52:28;100802.31;;;8.49;100.00
30421;BME280;17218;54.070;10.012;2023-04-15T00:54:54;100803.16;;;8.52;100.00
30421;BME280;17218;54.070;10.012;2023-04-15T00:57:21;100786.84;;;8.59;100.00
30421;BME280;17218;54.070;10.012;2023-04-15T00:59:48;100799.75;;;8.56;100.00
30421;BME280;17218;54.070;10.012;2023-04-15T01:02:15;100807.50;;;8.56;100.00
30421;BME280;17218;54.070;10.012;2023-04-15T01:04:42;100798.91;;;8.59;100.00
30421;BME280;17218;54.070;10.012;2023-04-15T01:07:09;100797.16;;;8.56;100.00
30421;BME280;17218;54.070;10.012;2023-04-15T01:09:35;100795.41;;;8.54;100.00
30421;BME280;17218;54.070;10.012;2023-04-15T01:12:02;100794.53;;;8.55;100.00
30421;BME280;17218;54.070;10.012;2023-04-15T01:14:29;100801.47;;;8.59;100.00
30421;BME280;17218;54.070;10.012;2023-04-15T01:16:56;100795.47;;;8.63;100.00
30421;BME280;17218;54.070;10.012;2023-04-15T01:19:24;100791.16;;;8.64;100.00
30421;BME280;17218;54.070;10.012;2023-04-15T01:21:51;100792.03;;;8.59;100.00
30421;BME280;17218;54.070;10.012;2023-04-15T01:24:18;100802.34;;;8.61;100.00
30421;BME280;17218;54.070;10.012;2023-04-15T01:26:46;100798.91;;;8.67;100.00
30421;BME280;17218;54.070;10.012;2023-04-15T01:29:14;100796.34;;;8.67;100.00
30421;BME280;17218;54.070;10.012;2023-04-15T01:31:48;100793.72;;;8.64;100.00
30421;BME280;17218;54.070;10.012;2023-04-15T01:34:16;100791.16;;;8.56;100.00
30421;BME280;17218;54.070;10.012;2023-04-15T01:36:42;100792.81;;;8.51;100.00
30421;BME280;17218;54.070;10.012;2023-04-15T01:39:09;100797.13;;;8.52;100.00
30421;BME280;17218;54.070;10.012;2023-04-15T01:41:35;100802.28;;;8.53;100.00
30421;BME280;17218;54.070;10.012;2023-04-15T01:44:03;100795.41;;;8.55;100.00
30421;BME280;17218;54.070;10.012;2023-04-15T01:46:31;100792.03;;;8.59;100.00
30421;BME280;17218;54.070;10.012;2023-04-15T01:48:57;100782.53;;;8.57;100.00
30421;BME280;17218;54.070;10.012;2023-04-15T01:51:24;100788.50;;;8.53;100.00
30421;BME280;17218;54.070;10.012;2023-04-15T01:53:51;100792.03;;;8.59;100.00
30421;BME280;17218;54.070;10.012;2023-04-15T01:56:18;100785.97;;;8.62;100.00
30421;BME280;17218;54.070;10.012;2023-04-15T01:58:44;100786.84;;;8.63;100.00
30421;BME280;17218;54.070;10.012;2023-04-15T02:01:12;100786.84;;;8.61;100.00
30421;BME280;17218;54.070;10.012;2023-04-15T02:03:39;100787.66;;;8.55;100.00
30421;BME280;17218;54.070;10.012;2023-04-15T02:06:06;100789.38;;;8.55;100.00
30421;BME280;17218;54.070;10.012;2023-04-15T02:08:32;100778.25;;;8.56;100.00
30421;BME280;17218;54.070;10.012;2023-04-15T02:10:59;100780.78;;;8.51;100.00
30421;BME280;17218;54.070;10.012;2023-04-15T02:13:25;100771.31;;;8.50;100.00
30421;BME280;17218;54.070;10.012;2023-04-15T02:15:53;100769.56;;;8.47;100.00
30421;BME280;17218;54.070;10.012;2023-04-15T02:18:21;100773.03;;;8.50;100.00
30421;BME280;17218;54.070;10.012;2023-04-15T02:20:50;100777.34;;;8.54;100.00
30421;BME280;17218;54.070;10.012;2023-04-15T02:23:17;100773.91;;;8.50;100.00
30421;BME280;17218;54.070;10.012;2023-04-15T02:25:43;100771.28;;;8.47;100.00
30421;BME280;17218;54.070;10.012;2023-04-15T02:28:10;100762.69;;;8.53;100.00
30421;BME280;17218;54.070;10.012;2023-04-15T02:30:36;100766.16;;;8.50;100.00
30421;BME280;17218;54.070;10.012;2023-04-15T02:33:04;100760.97;;;8.44;100.00
30421;BME280;17218;54.070;10.012;2023-04-15T02:35:33;100779.91;;;8.49;100.00
30421;BME280;17218;54.070;10.012;2023-04-15T02:38:02;100765.28;;;8.53;100.00
30421;BME280;17218;54.070;10.012;2023-04-15T02:40:29;100782.47;;;8.46;100.00
30421;BME280;17218;54.070;10.012;2023-04-15T02:42:55;100776.47;;;8.50;100.00
30421;BME280;17218;54.070;10.012;2023-04-15T02:45:22;100779.94;;;8.52;100.00
30421;BME280;17218;54.070;10.012;2023-04-15T02:47:51;100773.91;;;8.53;100.00
30421;BME280;17218;54.070;10.012;2023-04-15T02:50:18;100773.03;;;8.54;100.00
30421;BME280;17218;54.070;10.012;2023-04-15T02:52:46;100778.19;;;8.51;100.00
30421;BME280;17218;54.070;10.012;2023-04-15T02:55:13;100769.59;;;8.55;100.00
30421;BME280;17218;54.070;10.012;2023-04-15T02:57:39;100776.50;;;8.56;100.00
30421;BME280;17218;54.070;10.012;2023-04-15T03:00:06;100771.31;;;8.55;100.00
30421;BME280;17218;54.070;10.012;2023-04-15T03:02:36;100772.19;;;8.54;100.00
30421;BME280;17218;54.070;10.012;2023-04-15T03:05:04;100778.19;;;8.54;100.00
30421;BME280;17218;54.070;10.012;2023-04-15T03:07:31;100774.75;;;8.51;100.00
30421;BME280;17218;54.070;10.012;2023-04-15T03:09:58;100771.28;;;8.44;100.00
30421;BME280;17218;54.070;10.012;2023-04-15T03:12:25;100769.59;;;8.41;100.00
30421;BME280;17218;54.070;10.012;2023-04-15T03:14:52;100775.59;;;8.43;100.00
30421;BME280;17218;54.070;10.012;2023-04-15T03:17:18;100773.91;;;8.52;100.00
30421;BME280;17218;54.070;10.012;2023-04-15T03:19:45;100771.31;;;8.50;100.00
30421;BME280;17218;54.070;10.012;2023-04-15T03:22:11;100778.19;;;8.51;100.00
30421;BME280;17218;54.070;10.012;2023-04-15T03:24:38;100775.59;;;8.50;100.00
30421;BME280;17218;54.070;10.012;2023-04-15T03:27:06;100779.03;;;8.44;100.00
30421;BME280;17218;54.070;10.012;2023-04-15T03:29:32;100781.63;;;8.42;100.00
30421;BME280;17218;54.070;10.012;2023-04-15T03:31:59;100775.59;;;8.50;100.00
30421;BME280;17218;54.070;10.012;2023-04-15T03:34:25;100785.94;;;8.45;100.00
30421;BME280;17218;54.070;10.012;2023-04-15T03:36:52;100781.63;;;8.44;100.00
30421;BME280;17218;54.070;10.012;2023-04-15T03:39:19;100773.91;;;8.50;100.00
30421;BME280;17218;54.070;10.012;2023-04-15T03:41:45;100768.72;;;8.52;100.00
30421;BME280;17218;54.070;10.012;2023-04-15T03:44:13;100779.94;;;8.60;100.00
30421;BME280;17218;54.070;10.012;2023-04-15T03:46:40;100780.81;;;8.64;100.00
30421;BME280;17218;54.070;10.012;2023-04-15T03:49:06;100785.16;;;8.73;100.00
30421;BME280;17218;54.070;10.012;2023-04-15T03:51:33;100786.00;;;8.73;100.00
30421;BME280;17218;54.070;10.012;2023-04-15T03:57:21;100777.41;;;8.83;100.00
30421;BME280;17218;54.070;10.012;2023-04-15T03:59:49;100774.81;;;8.85;100.00
30421;BME280;17218;54.070;10.012;2023-04-15T04:02:16;100769.66;;;8.91;100.00
30421;BME280;17218;54.070;10.012;2023-04-15T04:04:42;100776.53;;;8.88;100.00
30421;BME280;17218;54.070;10.012;2023-04-15T04:07:14;100780.84;;;8.82;100.00
30421;BME280;17218;54.070;10.012;2023-04-15T04:09:40;100772.22;;;8.77;100.00
30421;BME280;17218;54.070;10.012;2023-04-15T04:12:06;100781.72;;;8.78;100.00
30421;BME280;17218;54.070;10.012;2023-04-15T04:14:33;100781.72;;;8.81;100.00
30421;BME280;17218;54.070;10.012;2023-04-15T04:17:01;100792.03;;;8.74;100.00
30421;BME280;17218;54.070;10.012;2023-04-15T04:19:27;100790.31;;;8.76;100.00
30421;BME280;17218;54.070;10.012;2023-04-15T04:21:54;100793.75;;;8.79;100.00
30421;BME280;17218;54.070;10.012;2023-04-15T04:24:20;100789.47;;;8.78;100.00
30421;BME280;17218;54.070;10.012;2023-04-15T04:26:47;100792.88;;;8.80;100.00
30421;BME280;17218;54.070;10.012;2023-04-15T04:29:13;100786.03;;;8.86;100.00
30421;BME280;17218;54.070;10.012;2023-04-15T04:31:40;100787.75;;;8.85;100.00
30421;BME280;17218;54.070;10.012;2023-04-15T04:34:07;100790.31;;;8.80;100.00
30421;BME280;17218;54.070;10.012;2023-04-15T04:36:34;100786.00;;;8.81;100.00
30421;BME280;17218;54.070;10.012;2023-04-15T04:39:00;100791.16;;;8.82;100.00
30421;BME280;17218;54.070;10.012;2023-04-15T04:41:27;100791.16;;;8.82;100.00
30421;BME280;17218;54.070;10.012;2023-04-15T04:43:54;100789.44;;;8.88;100.00
30421;BME280;17218;54.070;10.012;2023-04-15T04:46:20;100778.28;;;8.87;100.00
30421;BME280;17218;54.070;10.012;2023-04-15T04:48:47;100787.72;;;8.88;100.00
30421;BME280;17218;54.070;10.012;2023-04-15T04:51:16;100793.75;;;8.92;100.00
30421;BME280;17218;54.070;10.012;2023-04-15T04:53:43;100791.19;;;8.93;100.00
30421;BME280;17218;54.070;10.012;2023-04-15T04:56:09;100797.22;;;8.99;100.00
30421;BME280;17218;54.070;10.012;2023-04-15T04:58:36;100798.09;;;9.02;100.00
30421;BME280;17218;54.070;10.012;2023-04-15T05:01:02;100793.78;;;9.01;100.00
30421;BME280;17218;54.070;10.012;2023-04-15T05:03:29;100794.66;;;8.99;100.00
30421;BME280;17218;54.070;10.012;2023-04-15T05:05:55;100790.31;;;9.01;100.00
30421;BME280;17218;54.070;10.012;2023-04-15T05:08:23;100792.94;;;9.02;100.00
30421;BME280;17218;54.070;10.012;2023-04-15T05:10:50;100794.63;;;9.08;100.00
30421;BME280;17218;54.070;10.012;2023-04-15T05:13:16;100793.78;;;9.11;100.00
30421;BME280;17218;54.070;10.012;2023-04-15T05:15:43;100792.91;;;9.15;100.00
30421;BME280;17218;54.070;10.012;2023-04-15T05:18:09;100791.19;;;9.14;100.00
30421;BME280;17218;54.070;10.012;2023-04-15T05:20:36;100790.31;;;9.10;100.00
30421;BME280;17218;54.070;10.012;2023-04-15T05:23:02;100780.84;;;9.03;100.00
30421;BME280;17218;54.070;10.012;2023-04-15T05:25:31;100786.88;;;9.08;100.00
30421;BME280;17218;54.070;10.012;2023-04-15T05:27:57;100791.19;;;9.12;100.00
30421;BME280;17218;54.070;10.012;2023-04-15T05:30:24;100784.31;;;9.21;100.00
30421;BME280;17218;54.070;10.012;2023-04-15T05:32:51;100793.78;;;9.17;100.00
30421;BME280;17218;54.070;10.012;2023-04-15T05:35:17;100812.72;;;9.16;100.00
30421;BME280;17218;54.070;10.012;2023-04-15T05:37:44;100822.22;;;9.17;100.00
30421;BME280;17218;54.070;10.012;2023-04-15T05:40:11;100817.91;;;9.11;100.00
30421;BME280;17218;54.070;10.012;2023-04-15T05:42:39;100823.06;;;9.13;100.00
30421;BME280;17218;54.070;10.012;2023-04-15T05:45:06;100826.50;;;9.18;100.00
30421;BME280;17218;54.070;10.012;2023-04-15T05:47:34;100823.91;;;9.19;100.00
30421;BME280;17218;54.070;10.012;2023-04-15T05:50:00;100817.88;;;9.19;100.00
30421;BME280;17218;54.070;10.012;2023-04-15T05:52:27;100823.06;;;9.22;100.00
30421;BME280;17218;54.070;10.012;2023-04-15T05:54:53;100826.50;;;9.12;100.00
30421;BME280;17218;54.070;10.012;2023-04-15T05:57:20;100819.63;;;9.11;100.00
30421;BME280;17218;54.070;10.012;2023-04-15T05:59:48;100817.88;;;9.05;100.00
30421;BME280;17218;54.070;10.012;2023-04-15T06:02:16;100823.91;;;8.99;100.00
30421;BME280;17218;54.070;10.012;2023-04-15T06:04:43;100825.63;;;8.95;100.00
30421;BME280;17218;54.070;10.012;2023-04-15T06:07:09;100818.75;;;9.01;100.00
30421;BME280;17218;54.070;10.012;2023-04-15T06:09:35;100817.03;;;9.00;100.00
30421;BME280;17218;54.070;10.012;2023-04-15T06:12:02;100816.16;;;9.05;100.00
30421;BME280;17218;54.070;10.012;2023-04-15T06:14:30;100815.31;;;9.21;100.00
30421;BME280;17218;54.070;10.012;2023-04-15T06:16:58;100821.34;;;9.18;100.00
30421;BME280;17218;54.070;10.012;2023-04-15T06:19:24;100833.41;;;9.16;100.00
30421;BME280;17218;54.070;10.012;2023-04-15T06:21:51;100825.63;;;9.06;100.00
30421;BME280;17218;54.070;10.012;2023-04-15T06:24:17;100827.38;;;9.07;100.00
30421;BME280;17218;54.070;10.012;2023-04-15T06:26:44;100836.84;;;9.18;100.00
30421;BME280;17218;54.070;10.012;2023-04-15T06:29:10;100835.13;;;9.23;100.00
30421;BME280;17218;54.070;10.012;2023-04-15T06:31:37;100836.84;;;9.26;100.00
30421;BME280;17218;54.070;10.012;2023-04-15T06:34:04;100823.91;;;9.30;100.00
30421;BME280;17218;54.070;10.012;2023-04-15T06:36:31;100835.13;;;9.31;100.00
30421;BME280;17218;54.070;10.012;2023-04-15T06:38:57;100832.53;;;9.34;100.00
30421;BME280;17218;54.070;10.012;2023-04-15T06:41:24;100829.09;;;9.29;100.00
30421;BME280;17218;54.070;10.012;2023-04-15T06:43:50;100824.78;;;9.20;100.00
30421;BME280;17218;54.070;10.012;2023-04-15T06:46:17;100834.25;;;9.29;100.00
30421;BME280;17218;54.070;10.012;2023-04-15T06:48:43;100845.44;;;9.33;100.00
30421;BME280;17218;54.070;10.012;2023-04-15T06:51:11;100845.44;;;9.36;100.00
30421;BME280;17218;54.070;10.012;2023-04-15T06:53:38;100854.94;;;9.38;100.00
30421;BME280;17218;54.070;10.012;2023-04-15T06:56:07;100866.16;;;9.40;100.00
30421;BME280;17218;54.070;10.012;2023-04-15T06:58:33;100863.53;;;9.36;100.00
30421;BME280;17218;54.070;10.012;2023-04-15T07:01:00;100855.78;;;9.42;100.00
30421;BME280;17218;54.070;10.012;2023-04-15T07:03:27;100871.31;;;9.40;100.00
30421;BME280;17218;54.070;10.012;2023-04-15T07:05:54;100877.34;;;9.39;100.00
30421;BME280;17218;54.070;10.012;2023-04-15T07:08:22;100871.31;;;9.48;100.00
30421;BME280;17218;54.070;10.012;2023-04-15T07:10:48;100879.94;;;9.50;100.00
30421;BME280;17218;54.070;10.012;2023-04-15T07:13:15;100873.06;;;9.43;100.00
30421;BME280;17218;54.070;10.012;2023-04-15T07:15:42;100873.91;;;9.40;100.00
30421;BME280;17218;54.070;10.012;2023-04-15T07:18:09;100878.19;;;9.30;100.00
30421;BME280;17218;54.070;10.012;2023-04-15T07:20:36;100880.78;;;9.32;100.00
30421;BME280;17218;54.070;10.012;2023-04-15T07:23:03;100881.63;;;9.36;100.00
30421;BME280;17218;54.070;10.012;2023-04-15T07:25:31;100871.31;;;9.40;100.00
30421;BME280;17218;54.070;10.012;2023-04-15T07:27:57;100873.88;;;9.53;100.00
30421;BME280;17218;54.070;10.012;2023-04-15T07:30:24;100880.78;;;9.68;100.00
30421;BME280;17218;54.070;10.012;2023-04-15T07:32:50;100866.97;;;9.77;100.00
30421;BME280;17218;54.070;10.012;2023-04-15T07:35:16;100872.97;;;9.81;100.00
30421;BME280;17218;54.070;10.012;2023-04-15T07:37:45;100872.13;;;9.80;100.00
30421;BME280;17218;54.070;10.012;2023-04-15T07:40:12;100862.63;;;9.90;100.00
30421;BME280;17218;54.070;10.012;2023-04-15T07:42:40;100864.34;;;9.96;100.00
30421;BME280;17218;54.070;10.012;2023-04-15T07:45:08;100863.47;;;9.98;100.00
30421;BME280;17218;54.070;10.012;2023-04-15T07:47:35;100870.34;;;10.01;100.00
30421;BME280;17218;54.070;10.012;2023-04-15T07:50:01;100861.72;;;10.05;100.00
30421;BME280;17218;54.070;10.012;2023-04-15T07:52:27;100864.31;;;10.02;100.00
30421;BME280;17218;54.070;10.012;2023-04-15T07:54:54;100868.63;;;9.95;100.00
30421;BME280;17218;54.070;10.012;2023-04-15T07:57:20;100866.91;;;9.97;100.00
30421;BME280;17218;54.070;10.012;2023-04-15T07:59:48;100872.09;;;9.97;100.00
30421;BME280;17218;54.070;10.012;2023-04-15T08:02:15;100885.91;;;9.92;100.00
30421;BME280;17218;54.070;10.012;2023-04-15T08:04:41;100881.59;;;9.86;100.00
30421;BME280;17218;54.070;10.012;2023-04-15T08:07:08;100887.66;;;9.91;100.00
30421;BME280;17218;54.070;10.012;2023-04-15T08:09:34;100904.03;;;9.96;100.00
30421;BME280;17218;54.070;10.012;2023-04-15T08:12:14;100898.84;;;9.98;100.00
30421;BME280;17218;54.070;10.012;2023-04-15T08:14:41;100897.94;;;10.07;100.00
30421;BME280;17218;54.070;10.012;2023-04-15T08:17:08;100897.91;;;10.25;100.00
30421;BME280;17218;54.070;10.012;2023-04-15T08:19:35;100904.75;;;10.42;100.00
30421;BME280;17218;54.070;10.012;2023-04-15T08:22:01;100902.13;;;10.53;100.00
30421;BME280;17218;54.070;10.012;2023-04-15T08:24:29;100897.81;;;10.57;100.00
30421;BME280;17218;54.070;10.012;2023-04-15T08:26:55;100901.22;;;10.68;100.00
30421;BME280;17218;54.070;10.012;2023-04-15T08:29:22;100898.59;;;10.71;100.00
30421;BME280;17218;54.070;10.012;2023-04-15T08:31:48;100899.41;;;10.81;100.00
30421;BME280;17218;54.070;10.012;2023-04-15T08:34:16;100889.81;;;10.91;100.00
30421;BME280;17218;54.070;10.012;2023-04-15T08:36:42;100899.28;;;11.03;100.00
30421;BME280;17218;54.070;10.012;2023-04-15T08:39:09;100895.81;;;11.03;100.00
30421;BME280;17218;54.070;10.012;2023-04-15T08:42:22;100902.69;;;11.08;100.00
30421;BME280;17218;54.070;10.012;2023-04-15T08:44:49;100899.97;;;11.27;100.00
30421;BME280;17218;54.070;10.012;2023-04-15T08:47:19;100903.34;;;11.39;100.00
30421;BME280;17218;54.070;10.012;2023-04-15T08:49:49;100901.59;;;11.42;100.00
30421;BME280;17218;54.070;10.012;2023-04-15T08:52:18;100897.94;;;11.64;100.00
30421;BME280;17218;54.070;10.012;2023-04-15T08:54:45;100905.66;;;11.72;100.00
30421;BME280;17218;54.070;10.012;2023-04-15T08:57:12;100909.69;;;12.01;100.00
30421;BME280;17218;54.070;10.012;2023-04-15T08:59:40;100901.72;;;12.21;100.00
30421;BME280;17218;54.070;10.012;2023-04-15T09:02:07;100904.94;;;12.42;100.00
30421;BME280;17218;54.070;10.012;2023-04-15T09:04:34;100902.97;;;12.60;100.00
30421;BME280;17218;54.070;10.012;2023-04-15T09:07:02;100905.50;;;12.66;100.00
30421;BME280;17218;54.070;10.012;2023-04-15T09:09:28;100901.97;;;12.69;100.00
30421;BME280;17218;54.070;10.012;2023-04-15T09:11:55;100908.69;;;12.87;100.00
30421;BME280;17218;54.070;10.012;2023-04-15T09:14:21;100916.16;;;13.09;100.00
30421;BME280;17218;54.070;10.012;2023-04-15T09:16:58;100919.50;;;13.17;100.00
30421;BME280;17218;54.070;10.012;2023-04-15T09:19:25;100923.41;;;12.86;100.00
30421;BME280;17218;54.070;10.012;2023-04-15T09:21:53;100924.28;;;12.85;100.00
30421;BME280;17218;54.070;10.012;2023-04-15T09:24:22;100932.63;;;13.08;100.00
30421;BME280;17218;54.070;10.012;2023-04-15T09:26:51;100931.59;;;13.21;100.00
30421;BME280;17218;54.070;10.012;2023-04-15T09:29:19;100932.25;;;13.34;100.00
30421;BME280;17218;54.070;10.012;2023-04-15T09:31:46;100932.13;;;13.42;100.00
30421;BME280;17218;54.070;10.012;2023-04-15T09:34:12;100929.38;;;13.53;100.00
30421;BME280;17218;54.070;10.012;2023-04-15T09:36:54;100930.69;;;13.79;100.00
30421;BME280;17218;54.070;10.012;2023-04-15T09:39:23;100930.13;;;14.11;100.00
30421;BME280;17218;54.070;10.012;2023-04-15T09:42:05;100929.94;;;14.20;100.00
30421;BME280;17218;54.070;10.012;2023-04-15T09:44:32;100928.97;;;14.24;100.00
30421;BME280;17218;54.070;10.012;2023-04-15T09:46:59;100930.72;;;14.25;100.00
30421;BME280;17218;54.070;10.012;2023-04-15T09:49:25;100934.94;;;14.31;100.00
30421;BME280;17218;54.070;10.012;2023-04-15T09:51:57;100943.44;;;14.39;100.00
30421;BME280;17218;54.070;10.012;2023-04-15T09:54:32;100940.97;;;14.33;100.00
30421;BME280;17218;54.070;10.012;2023-04-15T09:57:04;100948.38;;;14.53;100.00
30421;BME280;17218;54.070;10.012;2023-04-15T09:59:31;100940.28;;;14.67;100.00
30421;BME280;17218;54.070;10.012;2023-04-15T10:01:58;100938.84;;;14.95;100.00
30421;BME280;17218;54.070;10.012;2023-04-15T10:04:26;100928.66;;;15.22;100.00
30421;BME280;17218;54.070;10.012;2023-04-15T10:06:52;100933.56;;;15.36;100.00
30421;BME280;17218;54.070;10.012;2023-04-15T10:09:19;100938.34;;;15.54;100.00
30421;BME280;17218;54.070;10.012;2023-04-15T10:11:48;100944.13;;;15.67;100.00
30421;BME280;17218;54.070;10.012;2023-04-15T10:14:15;100951.81;;;15.73;100.00
30421;BME280;17218;54.070;10.012;2023-04-15T10:16:46;100949.41;;;15.98;100.00
30421;BME280;17218;54.070;10.012;2023-04-15T10:19:14;100941.13;;;16.16;100.00
30421;BME280;17218;54.070;10.012;2023-04-15T10:21:44;100948.84;;;16.20;100.00
30421;BME280;17218;54.070;10.012;2023-04-15T10:24:11;100949.75;;;16.19;100.00
30421;BME280;17218;54.070;10.012;2023-04-15T10:26:38;100943.19;;;16.04;100.00
30421;BME280;17218;54.070;10.012;2023-04-15T10:29:07;100942.38;;;16.02;100.00
30421;BME280;17218;54.070;10.012;2023-04-15T10:31:35;100947.19;;;16.16;100.00
30421;BME280;17218;54.070;10.012;2023-04-15T10:34:02;100951.72;;;16.43;100.00
30421;BME280;17218;54.070;10.012;2023-04-15T10:36:31;100951.50;;;16.51;100.00
30421;BME280;17218;54.070;10.012;2023-04-15T10:38:57;100960.56;;;16.69;100.00
30421;BME280;17218;54.070;10.012;2023-04-15T10:41:25;100955.00;;;16.80;100.00
30421;BME280;17218;54.070;10.012;2023-04-15T10:43:53;100951.25;;;16.89;100.00
30421;BME280;17218;54.070;10.012;2023-04-15T10:46:23;100953.22;;;17.11;100.00
30421;BME280;17218;54.070;10.012;2023-04-15T10:48:51;100955.06;;;17.36;100.00
30421;BME280;17218;54.070;10.012;2023-04-15T10:51:29;100953.94;;;17.70;100.00
30421;BME280;17218;54.070;10.012;2023-04-15T10:53:56;100957.75;;;17.87;100.00
30421;BME280;17218;54.070;10.012;2023-04-15T10:56:24;100955.66;;;17.97;100.00
30421;BME280;17218;54.070;10.012;2023-04-15T10:58:51;100963.16;;;18.08;100.00
30421;BME280;17218;54.070;10.012;2023-04-15T11:01:18;100967.09;;;17.94;100.00
30421;BME280;17218;54.070;10.012;2023-04-15T11:03:48;100959.72;;;18.06;100.00
30421;BME280;17218;54.070;10.012;2023-04-15T11:06:15;100963.59;;;18.21;100.00
30421;BME280;17218;54.070;10.012;2023-04-15T11:08:56;100960.66;;;18.30;100.00
30421;BME280;17218;54.070;10.012;2023-04-15T11:14:24;100968.09;;;17.92;100.00
30421;BME280;17218;54.070;10.012;2023-04-15T11:16:51;100968.09;;;17.92;100.00
30421;BME280;17218;54.070;10.012;2023-04-15T11:19:19;100972.78;;;17.82;100.00
30421;BME280;17218;54.070;10.012;2023-04-15T11:21:45;100976.72;;;17.41;100.00
30421;BME280;17218;54.070;10.012;2023-04-15T11:24:22;100980.34;;;17.08;100.00
30421;BME280;17218;54.070;10.012;2023-04-15T11:26:56;100982.88;;;17.11;100.00
30421;BME280;17218;54.070;10.012;2023-04-15T11:29:28;100979.91;;;17.51;100.00
30421;BME280;17218;54.070;10.012;2023-04-15T11:32:03;100988.69;;;18.52;100.00
30421;BME280;17218;54.070;10.012;2023-04-15T11:34:31;100978.97;;;19.02;100.00
30421;BME280;17218;54.070;10.012;2023-04-15T11:36:58;100987.09;;;18.72;100.00
30421;BME280;17218;54.070;10.012;2023-04-15T11:39:25;100988.03;;;18.47;100.00
30421;BME280;17218;54.070;10.012;2023-04-15T11:41:51;100986.06;;;18.28;100.00
30421;BME280;17218;54.070;10.012;2023-04-15T11:44:18;100997.72;;;17.67;100.00
30421;BME280;17218;54.070;10.012;2023-04-15T11:46:44;100991.47;;;17.71;100.00
30421;BME280;17218;54.070;10.012;2023-04-15T11:49:11;100987.09;;;19.41;100.00
30421;BME280;17218;54.070;10.012;2023-04-15T11:51:39;100987.28;;;20.61;100.00
30421;BME280;17218;54.070;10.012;2023-04-15T11:54:05;100997.56;;;20.47;100.00
30421;BME280;17218;54.070;10.012;2023-04-15T11:56:32;100998.28;;;20.70;100.00
30421;BME280;17218;54.070;10.012;2023-04-15T11:58:58;100992.47;;;20.63;100.00
30421;BME280;17218;54.070;10.012;2023-04-15T12:01:31;100997.69;;;20.44;100.00
30421;BME280;17218;54.070;10.012;2023-04-15T12:03:57;101000.97;;;20.09;100.00
30421;BME280;17218;54.070;10.012;2023-04-15T12:06:31;101012.09;;;20.16;100.00
30421;BME280;17218;54.070;10.012;2023-04-15T12:09:03;101012.31;;;19.88;100.00
30421;BME280;17218;54.070;10.012;2023-04-15T12:11:35;101006.19;;;19.88;100.00
30421;BME280;17218;54.070;10.012;2023-04-15T12:14:04;101007.81;;;20.13;100.00
30421;BME280;17218;54.070;10.012;2023-04-15T12:16:32;101015.53;;;20.96;100.00
30421;BME280;17218;54.070;10.012;2023-04-15T12:18:59;101012.72;;;21.56;100.00
30421;BME280;17218;54.070;10.012;2023-04-15T12:21:27;101024.34;;;20.76;100.00
30421;BME280;17218;54.070;10.012;2023-04-15T12:24:02;101028.69;;;19.95;100.00
30421;BME280;17218;54.070;10.012;2023-04-15T12:26:32;101030.72;;;19.45;100.00
30421;BME280;17218;54.070;10.012;2023-04-15T12:29:00;101029.38;;;19.11;100.00
30421;BME280;17218;54.070;10.012;2023-04-15T12:31:26;101025.19;;;19.74;100.00
30421;BME280;17218;54.070;10.012;2023-04-15T12:33:54;101023.19;;;21.57;100.00
30421;BME280;17218;54.070;10.012;2023-04-15T12:36:20;101030.03;;;21.25;100.00
30421;BME280;17218;54.070;10.012;2023-04-15T12:38:47;101033.56;;;20.66;100.00
30421;BME280;17218;54.070;10.012;2023-04-15T12:41:15;101044.50;;;19.73;100.00
30421;BME280;17218;54.070;10.012;2023-04-15T12:43:43;101039.81;;;19.14;100.00